sensor_id;sensor_type;location;lat;lon;timestamp;temperature;humidity
37530;DHT22;23374;52.758;6.872;2023-08-06T00:01:00;15.10;96.40
37530;DHT22;23374;52.758;6.872;2023-08-06T00:03:21;15.10;81.50
37530;DHT22;23374;52.758;6.872;2023-08-06T00:05:44;15.10;92.50
37530;DHT22;23374;52.758;6.872;2023-08-06T00:08:05;15.20;94.00
37530;DHT22;23374;52.758;6.872;2023-08-06T00:10:25;15.10;79.70
37530;DHT22;23374;52.758;6.872;2023-08-06T00:12:46;15.20;75.90
37530;DHT22;23374;52.758;6.872;2023-08-06T00:15:08;15.20;79.00
37530;DHT22;23374;52.758;6.872;2023-08-06T00:17:29;15.10;77.20
37530;DHT22;23374;52.758;6.872;2023-08-06T00:19:50;15.20;92.40
37530;DHT22;23374;52.758;6.872;2023-08-06T00:22:11;15.20;46.20
37530;DHT22;23374;52.758;6.872;2023-08-06T00:24:31;15.10;59.60
37530;DHT22;23374;52.758;6.872;2023-08-06T00:26:51;15.10;66.80
37530;DHT22;23374;52.758;6.872;2023-08-06T00:29:11;15.10;51.70
37530;DHT22;23374;52.758;6.872;2023-08-06T00:31:32;15.10;76.30
37530;DHT22;23374;52.758;6.872;2023-08-06T00:33:52;15.10;71.40
37530;DHT22;23374;52.758;6.872;2023-08-06T00:36:13;15.10;62.30
37530;DHT22;23374;52.758;6.872;2023-08-06T00:38:33;15.10;70.60
37530;DHT22;23374;52.758;6.872;2023-08-06T00:40:53;15.10;53.90
37530;DHT22;23374;52.758;6.872;2023-08-06T00:43:14;15.10;48.60
37530;DHT22;23374;52.758;6.872;2023-08-06T00:45:36;15.10;78.50
37530;DHT22;23374;52.758;6.872;2023-08-06T00:47:56;15.10;91.30
37530;DHT22;23374;52.758;6.872;2023-08-06T00:50:17;15.10;76.30
37530;DHT22;23374;52.758;6.872;2023-08-06T00:52:37;15.10;71.30
37530;DHT22;23374;52.758;6.872;2023-08-06T00:54:58;15.10;60.90
37530;DHT22;23374;52.758;6.872;2023-08-06T00:57:20;15.10;52.60
37530;DHT22;23374;52.758;6.872;2023-08-06T00:59:43;15.10;66.10
37530;DHT22;23374;52.758;6.872;2023-08-06T01:02:04;15.10;76.80
37530;DHT22;23374;52.758;6.872;2023-08-06T01:04:25;15.10;61.40
37530;DHT22;23374;52.758;6.872;2023-08-06T01:06:56;15.10;58.10
37530;DHT22;23374;52.758;6.872;2023-08-06T01:10:01;15.10;74.60
37530;DHT22;23374;52.758;6.872;2023-08-06T01:12:50;15.10;92.30
37530;DHT22;23374;52.758;6.872;2023-08-06T01:15:38;15.00;93.70
37530;DHT22;23374;52.758;6.872;2023-08-06T01:18:02;15.00;92.90
37530;DHT22;23374;52.758;6.872;2023-08-06T01:20:31;15.00;90.30
37530;DHT22;23374;52.758;6.872;2023-08-06T01:22:51;15.00;84.30
37530;DHT22;23374;52.758;6.872;2023-08-06T01:25:14;15.00;98.50
37530;DHT22;23374;52.758;6.872;2023-08-06T01:27:49;15.00;99.00
37530;DHT22;23374;52.758;6.872;2023-08-06T01:30:20;15.00;97.00
37530;DHT22;23374;52.758;6.872;2023-08-06T01:32:45;15.00;99.90
37530;DHT22;23374;52.758;6.872;2023-08-06T01:35:07;14.90;99.90
37530;DHT22;23374;52.758;6.872;2023-08-06T01:37:29;14.90;99.90
37530;DHT22;23374;52.758;6.872;2023-08-06T01:39:50;14.90;99.90
37530;DHT22;23374;52.758;6.872;2023-08-06T01:42:10;15.00;99.90
37530;DHT22;23374;52.758;6.872;2023-08-06T01:44:30;15.00;99.90
37530;DHT22;23374;52.758;6.872;2023-08-06T01:46:51;15.00;99.90
37530;DHT22;23374;52.758;6.872;2023-08-06T01:49:12;15.00;99.90
37530;DHT22;23374;52.758;6.872;2023-08-06T01:51:32;15.00;99.90
37530;DHT22;23374;52.758;6.872;2023-08-06T01:53:53;15.00;99.90
37530;DHT22;23374;52.758;6.872;2023-08-06T01:56:14;15.00;99.90
37530;DHT22;23374;52.758;6.872;2023-08-06T01:58:34;15.00;99.90
37530;DHT22;23374;52.758;6.872;2023-08-06T02:00:55;15.10;99.90
37530;DHT22;23374;52.758;6.872;2023-08-06T02:03:15;15.00;99.90
37530;DHT22;23374;52.758;6.872;2023-08-06T02:05:36;15.00;99.90
37530;DHT22;23374;52.758;6.872;2023-08-06T02:07:57;15.00;99.90
37530;DHT22;23374;52.758;6.872;2023-08-06T02:10:17;15.00;99.90
37530;DHT22;23374;52.758;6.872;2023-08-06T02:12:37;15.00;99.90
37530;DHT22;23374;52.758;6.872;2023-08-06T02:14:58;15.10;99.90
37530;DHT22;23374;52.758;6.872;2023-08-06T02:17:18;15.10;99.90
37530;DHT22;23374;52.758;6.872;2023-08-06T02:19:39;15.10;99.90
37530;DHT22;23374;52.758;6.872;2023-08-06T02:21:59;15.10;99.90
37530;DHT22;23374;52.758;6.872;2023-08-06T02:24:20;15.10;99.90
37530;DHT22;23374;52.758;6.872;2023-08-06T02:26:40;15.10;99.90
37530;DHT22;23374;52.758;6.872;2023-08-06T02:29:01;15.10;99.90
37530;DHT22;23374;52.758;6.872;2023-08-06T02:31:21;15.10;99.90
37530;DHT22;23374;52.758;6.872;2023-08-06T02:33:42;15.10;99.90
37530;DHT22;23374;52.758;6.872;2023-08-06T02:36:03;15.00;99.90
37530;DHT22;23374;52.758;6.872;2023-08-06T02:38:25;15.00;99.90
37530;DHT22;23374;52.758;6.872;2023-08-06T02:40:46;15.00;99.90
37530;DHT22;23374;52.758;6.872;2023-08-06T02:43:07;15.00;99.90
37530;DHT22;23374;52.758;6.872;2023-08-06T02:45:27;15.00;99.90
37530;DHT22;23374;52.758;6.872;2023-08-06T02:47:47;15.00;99.90
37530;DHT22;23374;52.758;6.872;2023-08-06T02:50:08;15.00;99.90
37530;DHT22;23374;52.758;6.872;2023-08-06T02:52:28;15.00;99.90
37530;DHT22;23374;52.758;6.872;2023-08-06T02:54:49;15.10;99.90
37530;DHT22;23374;52.758;6.872;2023-08-06T02:57:09;15.00;99.90
37530;DHT22;23374;52.758;6.872;2023-08-06T02:59:31;15.00;99.90
37530;DHT22;23374;52.758;6.872;2023-08-06T03:01:52;15.10;99.90
37530;DHT22;23374;52.758;6.872;2023-08-06T03:04:12;15.00;99.90
37530;DHT22;23374;52.758;6.872;2023-08-06T03:06:33;15.00;99.90
37530;DHT22;23374;52.758;6.872;2023-08-06T03:08:53;15.00;99.90
37530;DHT22;23374;52.758;6.872;2023-08-06T03:11:13;14.90;99.90
37530;DHT22;23374;52.758;6.872;2023-08-06T03:13:33;15.00;99.90
37530;DHT22;23374;52.758;6.872;2023-08-06T03:15:55;15.00;99.80
37530;DHT22;23374;52.758;6.872;2023-08-06T03:18:16;14.90;99.90
37530;DHT22;23374;52.758;6.872;2023-08-06T03:20:37;14.90;99.90
37530;DHT22;23374;52.758;6.872;2023-08-06T03:22:57;14.90;99.90
37530;DHT22;23374;52.758;6.872;2023-08-06T03:25:17;14.90;99.40
37530;DHT22;23374;52.758;6.872;2023-08-06T03:27:38;14.80;99.90
37530;DHT22;23374;52.758;6.872;2023-08-06T03:29:58;14.80;99.90
37530;DHT22;23374;52.758;6.872;2023-08-06T03:32:21;14.80;99.90
37530;DHT22;23374;52.758;6.872;2023-08-06T03:34:41;14.80;99.90
37530;DHT22;23374;52.758;6.872;2023-08-06T03:37:01;14.80;99.90
37530;DHT22;23374;52.758;6.872;2023-08-06T03:39:22;14.80;99.90
37530;DHT22;23374;52.758;6.872;2023-08-06T03:41:42;14.80;99.90
37530;DHT22;23374;52.758;6.872;2023-08-06T03:44:03;14.80;99.90
37530;DHT22;23374;52.758;6.872;2023-08-06T03:46:24;14.90;99.90
37530;DHT22;23374;52.758;6.872;2023-08-06T03:48:46;14.90;99.90
37530;DHT22;23374;52.758;6.872;2023-08-06T03:51:06;14.90;99.90
37530;DHT22;23374;52.758;6.872;2023-08-06T03:53:26;14.90;99.90
37530;DHT22;23374;52.758;6.872;2023-08-06T03:55:47;14.90;99.90
37530;DHT22;23374;52.758;6.872;2023-08-06T03:58:07;14.90;99.90
37530;DHT22;23374;52.758;6.872;2023-08-06T04:00:27;14.90;99.90
37530;DHT22;23374;52.758;6.872;2023-08-06T04:02:47;14.90;99.90
37530;DHT22;23374;52.758;6.872;2023-08-06T04:05:09;14.90;99.90
37530;DHT22;23374;52.758;6.872;2023-08-06T04:07:29;15.00;99.90
37530;DHT22;23374;52.758;6.872;2023-08-06T04:10:01;15.00;99.90
37530;DHT22;23374;52.758;6.872;2023-08-06T04:12:21;15.00;97.80
37530;DHT22;23374;52.758;6.872;2023-08-06T04:14:42;15.00;99.90
37530;DHT22;23374;52.758;6.872;2023-08-06T04:17:03;15.00;99.90
37530;DHT22;23374;52.758;6.872;2023-08-06T04:19:24;15.00;97.00
37530;DHT22;23374;52.758;6.872;2023-08-06T04:21:44;15.00;99.90
37530;DHT22;23374;52.758;6.872;2023-08-06T04:24:04;15.00;99.90
37530;DHT22;23374;52.758;6.872;2023-08-06T04:26:24;14.90;96.20
37530;DHT22;23374;52.758;6.872;2023-08-06T04:28:44;15.00;99.90
37530;DHT22;23374;52.758;6.872;2023-08-06T04:31:05;14.90;99.90
37530;DHT22;23374;52.758;6.872;2023-08-06T04:33:25;14.90;99.00
37530;DHT22;23374;52.758;6.872;2023-08-06T04:35:46;14.90;99.90
37530;DHT22;23374;52.758;6.872;2023-08-06T04:38:06;14.90;99.90
37530;DHT22;23374;52.758;6.872;2023-08-06T04:40:27;14.90;99.90
37530;DHT22;23374;52.758;6.872;2023-08-06T04:42:47;14.90;99.90
37530;DHT22;23374;52.758;6.872;2023-08-06T04:45:09;14.90;99.90
37530;DHT22;23374;52.758;6.872;2023-08-06T04:47:29;14.90;99.90
37530;DHT22;23374;52.758;6.872;2023-08-06T04:49:49;15.00;99.90
37530;DHT22;23374;52.758;6.872;2023-08-06T04:52:09;14.90;99.90
37530;DHT22;23374;52.758;6.872;2023-08-06T04:54:29;15.00;99.90
37530;DHT22;23374;52.758;6.872;2023-08-06T04:56:50;15.00;99.90
37530;DHT22;23374;52.758;6.872;2023-08-06T04:59:10;15.10;99.90
37530;DHT22;23374;52.758;6.872;2023-08-06T05:01:30;15.00;99.90
37530;DHT22;23374;52.758;6.872;2023-08-06T05:03:50;15.00;99.90
37530;DHT22;23374;52.758;6.872;2023-08-06T05:06:10;15.10;99.90
37530;DHT22;23374;52.758;6.872;2023-08-06T05:08:31;15.10;99.90
37530;DHT22;23374;52.758;6.872;2023-08-06T05:10:51;15.10;99.90
37530;DHT22;23374;52.758;6.872;2023-08-06T05:13:12;15.10;99.90
37530;DHT22;23374;52.758;6.872;2023-08-06T05:15:32;15.10;99.90
37530;DHT22;23374;52.758;6.872;2023-08-06T05:17:53;15.10;99.90
37530;DHT22;23374;52.758;6.872;2023-08-06T05:20:13;15.10;82.30
37530;DHT22;23374;52.758;6.872;2023-08-06T05:22:34;15.00;99.90
37530;DHT22;23374;52.758;6.872;2023-08-06T05:24:54;15.00;99.90
37530;DHT22;23374;52.758;6.872;2023-08-06T05:27:14;14.90;99.90
37530;DHT22;23374;52.758;6.872;2023-08-06T05:29:35;14.90;99.90
37530;DHT22;23374;52.758;6.872;2023-08-06T05:31:55;14.90;99.90
37530;DHT22;23374;52.758;6.872;2023-08-06T05:34:15;14.90;99.90
37530;DHT22;23374;52.758;6.872;2023-08-06T05:36:35;14.90;99.90
37530;DHT22;23374;52.758;6.872;2023-08-06T05:38:55;14.90;99.90
37530;DHT22;23374;52.758;6.872;2023-08-06T05:41:16;15.00;99.90
37530;DHT22;23374;52.758;6.872;2023-08-06T05:43:36;15.00;99.90
37530;DHT22;23374;52.758;6.872;2023-08-06T05:45:56;15.10;99.90
37530;DHT22;23374;52.758;6.872;2023-08-06T05:48:16;15.10;99.90
37530;DHT22;23374;52.758;6.872;2023-08-06T05:50:37;15.10;99.90
37530;DHT22;23374;52.758;6.872;2023-08-06T05:52:57;15.20;99.90
37530;DHT22;23374;52.758;6.872;2023-08-06T05:55:17;15.30;99.90
37530;DHT22;23374;52.758;6.872;2023-08-06T05:57:37;15.30;99.90
37530;DHT22;23374;52.758;6.872;2023-08-06T05:59:58;15.40;99.90
37530;DHT22;23374;52.758;6.872;2023-08-06T06:02:18;15.50;99.90
37530;DHT22;23374;52.758;6.872;2023-08-06T06:04:40;15.50;99.90
37530;DHT22;23374;52.758;6.872;2023-08-06T06:07:01;15.60;92.90
37530;DHT22;23374;52.758;6.872;2023-08-06T06:09:21;15.60;99.90
37530;DHT22;23374;52.758;6.872;2023-08-06T06:11:41;15.70;99.90
37530;DHT22;23374;52.758;6.872;2023-08-06T06:14:02;15.80;99.90
37530;DHT22;23374;52.758;6.872;2023-08-06T06:16:23;15.90;82.00
37530;DHT22;23374;52.758;6.872;2023-08-06T06:18:43;15.90;95.60
37530;DHT22;23374;52.758;6.872;2023-08-06T06:21:04;16.00;24.60
37530;DHT22;23374;52.758;6.872;2023-08-06T06:23:25;16.00;99.90
37530;DHT22;23374;52.758;6.872;2023-08-06T06:25:50;16.10;99.90
37530;DHT22;23374;52.758;6.872;2023-08-06T06:28:13;16.20;44.60
37530;DHT22;23374;52.758;6.872;2023-08-06T06:30:36;16.20;13.00
37530;DHT22;23374;52.758;6.872;2023-08-06T06:32:57;16.30;54.30
37530;DHT22;23374;52.758;6.872;2023-08-06T06:35:17;16.30;92.50
37530;DHT22;23374;52.758;6.872;2023-08-06T06:37:38;16.40;64.80
37530;DHT22;23374;52.758;6.872;2023-08-06T06:39:58;16.60;28.50
37530;DHT22;23374;52.758;6.872;2023-08-06T06:42:18;16.60;7.80
37530;DHT22;23374;52.758;6.872;2023-08-06T06:44:38;16.70;1.00
37530;DHT22;23374;52.758;6.872;2023-08-06T06:46:59;16.80;99.90
37530;DHT22;23374;52.758;6.872;2023-08-06T06:49:19;16.90;1.00
37530;DHT22;23374;52.758;6.872;2023-08-06T06:51:40;17.00;1.00
37530;DHT22;23374;52.758;6.872;2023-08-06T06:54:00;17.00;96.50
37530;DHT22;23374;52.758;6.872;2023-08-06T06:56:20;16.90;99.90
37530;DHT22;23374;52.758;6.872;2023-08-06T06:58:41;16.90;99.90
37530;DHT22;23374;52.758;6.872;2023-08-06T07:01:01;16.90;99.90
37530;DHT22;23374;52.758;6.872;2023-08-06T07:03:21;16.90;99.90
37530;DHT22;23374;52.758;6.872;2023-08-06T07:05:43;16.90;99.90
37530;DHT22;23374;52.758;6.872;2023-08-06T07:08:04;16.90;99.90
37530;DHT22;23374;52.758;6.872;2023-08-06T07:10:28;16.90;99.90
37530;DHT22;23374;52.758;6.872;2023-08-06T07:12:49;16.90;99.90
37530;DHT22;23374;52.758;6.872;2023-08-06T07:15:09;16.80;99.90
37530;DHT22;23374;52.758;6.872;2023-08-06T07:17:29;16.90;99.90
37530;DHT22;23374;52.758;6.872;2023-08-06T07:19:50;16.80;99.90
37530;DHT22;23374;52.758;6.872;2023-08-06T07:22:10;16.90;99.90
37530;DHT22;23374;52.758;6.872;2023-08-06T07:24:31;16.90;99.90
37530;DHT22;23374;52.758;6.872;2023-08-06T07:26:51;16.90;99.90
37530;DHT22;23374;52.758;6.872;2023-08-06T07:29:12;17.00;99.90
37530;DHT22;23374;52.758;6.872;2023-08-06T07:31:32;17.00;99.90
37530;DHT22;23374;52.758;6.872;2023-08-06T07:33:53;17.00;99.90
37530;DHT22;23374;52.758;6.872;2023-08-06T07:36:14;17.10;99.90
37530;DHT22;23374;52.758;6.872;2023-08-06T07:38:36;17.10;99.90
37530;DHT22;23374;52.758;6.872;2023-08-06T07:40:56;17.20;99.90
37530;DHT22;23374;52.758;6.872;2023-08-06T07:43:17;17.30;99.90
37530;DHT22;23374;52.758;6.872;2023-08-06T07:45:37;17.30;99.90
37530;DHT22;23374;52.758;6.872;2023-08-06T07:47:58;17.30;99.90
37530;DHT22;23374;52.758;6.872;2023-08-06T07:50:18;17.40;99.90
37530;DHT22;23374;52.758;6.872;2023-08-06T07:52:39;17.30;99.90
37530;DHT22;23374;52.758;6.872;2023-08-06T07:54:59;17.30;99.90
37530;DHT22;23374;52.758;6.872;2023-08-06T07:57:21;17.30;99.90
37530;DHT22;23374;52.758;6.872;2023-08-06T07:59:41;17.30;99.90
37530;DHT22;23374;52.758;6.872;2023-08-06T08:02:01;17.40;99.90
37530;DHT22;23374;52.758;6.872;2023-08-06T08:04:23;17.40;99.90
37530;DHT22;23374;52.758;6.872;2023-08-06T08:06:43;17.40;99.90
37530;DHT22;23374;52.758;6.872;2023-08-06T08:09:03;17.50;99.90
37530;DHT22;23374;52.758;6.872;2023-08-06T08:11:26;17.50;99.90
37530;DHT22;23374;52.758;6.872;2023-08-06T08:13:46;17.50;95.90
37530;DHT22;23374;52.758;6.872;2023-08-06T08:16:06;17.50;99.90
37530;DHT22;23374;52.758;6.872;2023-08-06T08:18:27;17.50;99.90
37530;DHT22;23374;52.758;6.872;2023-08-06T08:20:47;17.50;99.20
37530;DHT22;23374;52.758;6.872;2023-08-06T08:23:08;17.50;99.90
37530;DHT22;23374;52.758;6.872;2023-08-06T08:25:29;17.50;99.90
37530;DHT22;23374;52.758;6.872;2023-08-06T08:27:49;17.50;99.90
37530;DHT22;23374;52.758;6.872;2023-08-06T08:30:10;17.50;97.70
37530;DHT22;23374;52.758;6.872;2023-08-06T08:32:31;17.50;99.90
37530;DHT22;23374;52.758;6.872;2023-08-06T08:34:51;17.60;99.90
37530;DHT22;23374;52.758;6.872;2023-08-06T08:37:11;17.60;66.90
37530;DHT22;23374;52.758;6.872;2023-08-06T08:39:32;17.60;99.90
37530;DHT22;23374;52.758;6.872;2023-08-06T08:41:52;17.70;99.90
37530;DHT22;23374;52.758;6.872;2023-08-06T08:44:13;17.80;99.90
37530;DHT22;23374;52.758;6.872;2023-08-06T08:46:38;17.90;99.90
37530;DHT22;23374;52.758;6.872;2023-08-06T08:49:00;18.00;97.10
37530;DHT22;23374;52.758;6.872;2023-08-06T08:51:23;18.00;80.30
37530;DHT22;23374;52.758;6.872;2023-08-06T08:53:44;18.10;85.80
37530;DHT22;23374;52.758;6.872;2023-08-06T08:56:05;18.20;91.60
37530;DHT22;23374;52.758;6.872;2023-08-06T08:58:25;18.30;90.60
37530;DHT22;23374;52.758;6.872;2023-08-06T09:00:47;18.40;74.50
37530;DHT22;23374;52.758;6.872;2023-08-06T09:03:10;18.50;78.70
37530;DHT22;23374;52.758;6.872;2023-08-06T09:05:32;18.60;86.60
37530;DHT22;23374;52.758;6.872;2023-08-06T09:07:53;18.70;82.20
37530;DHT22;23374;52.758;6.872;2023-08-06T09:10:16;18.70;62.90
37530;DHT22;23374;52.758;6.872;2023-08-06T09:12:37;18.80;45.60
37530;DHT22;23374;52.758;6.872;2023-08-06T09:14:58;18.90;64.30
37530;DHT22;23374;52.758;6.872;2023-08-06T09:17:18;19.00;39.60
37530;DHT22;23374;52.758;6.872;2023-08-06T09:19:43;19.00;43.30
37530;DHT22;23374;52.758;6.872;2023-08-06T09:22:11;19.10;37.60
37530;DHT22;23374;52.758;6.872;2023-08-06T09:24:33;19.20;31.80
37530;DHT22;23374;52.758;6.872;2023-08-06T09:27:02;19.30;35.50
37530;DHT22;23374;52.758;6.872;2023-08-06T09:29:23;19.30;18.00
37530;DHT22;23374;52.758;6.872;2023-08-06T09:31:49;19.30;28.50
37530;DHT22;23374;52.758;6.872;2023-08-06T09:34:22;19.40;6.20
37530;DHT22;23374;52.758;6.872;2023-08-06T09:36:53;19.40;7.30
37530;DHT22;23374;52.758;6.872;2023-08-06T09:39:26;19.40;1.00
37530;DHT22;23374;52.758;6.872;2023-08-06T09:41:47;19.50;1.00
37530;DHT22;23374;52.758;6.872;2023-08-06T09:44:19;19.50;1.00
37530;DHT22;23374;52.758;6.872;2023-08-06T09:46:39;19.60;1.00
37530;DHT22;23374;52.758;6.872;2023-08-06T09:49:00;19.60;7.10
37530;DHT22;23374;52.758;6.872;2023-08-06T09:51:21;19.70;1.00
37530;DHT22;23374;52.758;6.872;2023-08-06T09:53:42;19.60;1.00
37530;DHT22;23374;52.758;6.872;2023-08-06T09:56:25;19.60;1.00
37530;DHT22;23374;52.758;6.872;2023-08-06T09:58:47;19.70;1.00
37530;DHT22;23374;52.758;6.872;2023-08-06T10:01:10;19.80;1.00
37530;DHT22;23374;52.758;6.872;2023-08-06T10:03:34;19.90;1.00
37530;DHT22;23374;52.758;6.872;2023-08-06T10:05:56;19.80;1.00
37530;DHT22;23374;52.758;6.872;2023-08-06T10:08:17;19.90;1.00
37530;DHT22;23374;52.758;6.872;2023-08-06T10:10:37;20.00;1.00
37530;DHT22;23374;52.758;6.872;2023-08-06T10:12:59;20.10;1.00
37530;DHT22;23374;52.758;6.872;2023-08-06T10:15:32;20.00;1.00
37530;DHT22;23374;52.758;6.872;2023-08-06T10:17:56;20.10;1.00
37530;DHT22;23374;52.758;6.872;2023-08-06T10:20:18;20.20;1.00
37530;DHT22;23374;52.758;6.872;2023-08-06T10:22:43;20.30;1.00
37530;DHT22;23374;52.758;6.872;2023-08-06T10:25:05;20.40;1.00
37530;DHT22;23374;52.758;6.872;2023-08-06T10:27:53;20.50;1.00
37530;DHT22;23374;52.758;6.872;2023-08-06T10:31:15;20.60;1.00
37530;DHT22;23374;52.758;6.872;2023-08-06T10:33:44;20.80;1.00
37530;DHT22;23374;52.758;6.872;2023-08-06T10:36:05;20.80;1.00
37530;DHT22;23374;52.758;6.872;2023-08-06T10:38:29;20.90;1.00
37530;DHT22;23374;52.758;6.872;2023-08-06T10:41:28;21.00;1.00
37530;DHT22;23374;52.758;6.872;2023-08-06T10:43:49;21.00;1.00
37530;DHT22;23374;52.758;6.872;2023-08-06T10:46:11;21.00;1.00
37530;DHT22;23374;52.758;6.872;2023-08-06T10:48:40;21.00;1.00
37530;DHT22;23374;52.758;6.872;2023-08-06T10:51:01;21.00;1.00
37530;DHT22;23374;52.758;6.872;2023-08-06T10:53:22;21.00;1.00
37530;DHT22;23374;52.758;6.872;2023-08-06T10:55:43;20.90;1.00
37530;DHT22;23374;52.758;6.872;2023-08-06T10:58:04;20.80;1.00
37530;DHT22;23374;52.758;6.872;2023-08-06T11:00:24;20.80;1.00
37530;DHT22;23374;52.758;6.872;2023-08-06T11:02:48;20.80;1.00
37530;DHT22;23374;52.758;6.872;2023-08-06T11:05:10;20.70;1.00
37530;DHT22;23374;52.758;6.872;2023-08-06T11:07:30;20.70;1.00
37530;DHT22;23374;52.758;6.872;2023-08-06T11:09:51;20.60;1.00
37530;DHT22;23374;52.758;6.872;2023-08-06T11:12:18;20.60;1.00
37530;DHT22;23374;52.758;6.872;2023-08-06T11:14:39;20.60;1.00
37530;DHT22;23374;52.758;6.872;2023-08-06T11:16:59;20.70;1.00
37530;DHT22;23374;52.758;6.872;2023-08-06T11:19:20;21.00;1.00
37530;DHT22;23374;52.758;6.872;2023-08-06T11:21:40;21.20;1.00
37530;DHT22;23374;52.758;6.872;2023-08-06T11:24:01;21.40;1.00
37530;DHT22;23374;52.758;6.872;2023-08-06T11:26:22;21.60;1.00
37530;DHT22;23374;52.758;6.872;2023-08-06T11:28:48;21.80;1.00
37530;DHT22;23374;52.758;6.872;2023-08-06T11:31:22;21.90;1.00
37530;DHT22;23374;52.758;6.872;2023-08-06T11:33:42;22.00;1.00
37530;DHT22;23374;52.758;6.872;2023-08-06T11:36:03;22.10;1.00
37530;DHT22;23374;52.758;6.872;2023-08-06T11:38:31;22.10;1.00
37530;DHT22;23374;52.758;6.872;2023-08-06T11:40:52;22.10;1.00
37530;DHT22;23374;52.758;6.872;2023-08-06T11:43:14;22.00;1.00
37530;DHT22;23374;52.758;6.872;2023-08-06T11:45:35;22.00;1.00
37530;DHT22;23374;52.758;6.872;2023-08-06T11:47:56;21.90;1.00
37530;DHT22;23374;52.758;6.872;2023-08-06T11:50:25;21.80;1.00
37530;DHT22;23374;52.758;6.872;2023-08-06T11:52:45;21.70;1.00
37530;DHT22;23374;52.758;6.872;2023-08-06T11:55:08;21.60;1.00
37530;DHT22;23374;52.758;6.872;2023-08-06T11:57:33;21.50;1.00
37530;DHT22;23374;52.758;6.872;2023-08-06T11:59:57;21.40;1.00
37530;DHT22;23374;52.758;6.872;2023-08-06T12:02:20;21.30;1.00
37530;DHT22;23374;52.758;6.872;2023-08-06T12:05:16;21.20;1.00
37530;DHT22;23374;52.758;6.872;2023-08-06T12:07:39;21.20;1.00
37530;DHT22;23374;52.758;6.872;2023-08-06T12:10:00;21.10;1.00
37530;DHT22;23374;52.758;6.872;2023-08-06T12:12:21;21.10;1.00
37530;DHT22;23374;52.758;6.872;2023-08-06T12:14:41;21.10;1.00
37530;DHT22;23374;52.758;6.872;2023-08-06T12:17:01;21.10;1.00
37530;DHT22;23374;52.758;6.872;2023-08-06T12:19:22;21.10;1.00
37530;DHT22;23374;52.758;6.872;2023-08-06T12:21:43;21.10;1.00
37530;DHT22;23374;52.758;6.872;2023-08-06T12:24:04;21.10;1.00
37530;DHT22;23374;52.758;6.872;2023-08-06T12:26:26;21.20;1.00
37530;DHT22;23374;52.758;6.872;2023-08-06T12:28:46;21.20;1.00
37530;DHT22;23374;52.758;6.872;2023-08-06T12:31:07;21.20;1.00
37530;DHT22;23374;52.758;6.872;2023-08-06T12:33:27;21.20;1.00
37530;DHT22;23374;52.758;6.872;2023-08-06T12:35:48;21.30;1.00
37530;DHT22;23374;52.758;6.872;2023-08-06T12:38:08;21.30;1.00
37530;DHT22;23374;52.758;6.872;2023-08-06T12:40:28;21.30;1.00
37530;DHT22;23374;52.758;6.872;2023-08-06T12:42:54;21.40;1.00
37530;DHT22;23374;52.758;6.872;2023-08-06T12:45:15;21.50;1.00
37530;DHT22;23374;52.758;6.872;2023-08-06T12:47:35;21.50;1.00
37530;DHT22;23374;52.758;6.872;2023-08-06T12:49:56;21.50;1.00
37530;DHT22;23374;52.758;6.872;2023-08-06T12:52:16;21.50;1.00
37530;DHT22;23374;52.758;6.872;2023-08-06T12:54:37;21.50;1.00
37530;DHT22;23374;52.758;6.872;2023-08-06T12:56:58;21.50;1.00
37530;DHT22;23374;52.758;6.872;2023-08-06T12:59:18;21.60;1.00
37530;DHT22;23374;52.758;6.872;2023-08-06T13:01:39;21.60;1.00
37530;DHT22;23374;52.758;6.872;2023-08-06T13:04:00;21.60;1.00
37530;DHT22;23374;52.758;6.872;2023-08-06T13:06:20;21.50;1.00
37530;DHT22;23374;52.758;6.872;2023-08-06T13:08:41;21.60;1.00
37530;DHT22;23374;52.758;6.872;2023-08-06T13:11:01;21.50;1.00
37530;DHT22;23374;52.758;6.872;2023-08-06T13:13:22;21.50;1.00
37530;DHT22;23374;52.758;6.872;2023-08-06T13:15:42;21.40;1.00
37530;DHT22;23374;52.758;6.872;2023-08-06T13:18:02;21.40;1.00
37530;DHT22;23374;52.758;6.872;2023-08-06T13:20:23;21.40;1.00
37530;DHT22;23374;52.758;6.872;2023-08-06T13:22:43;21.20;1.00
37530;DHT22;23374;52.758;6.872;2023-08-06T13:25:06;21.20;1.00
37530;DHT22;23374;52.758;6.872;2023-08-06T13:27:26;21.10;1.00
37530;DHT22;23374;52.758;6.872;2023-08-06T13:29:47;21.00;1.00
37530;DHT22;23374;52.758;6.872;2023-08-06T13:32:07;21.00;1.00
37530;DHT22;23374;52.758;6.872;2023-08-06T13:34:27;21.00;1.00
37530;DHT22;23374;52.758;6.872;2023-08-06T13:36:48;21.00;1.00
37530;DHT22;23374;52.758;6.872;2023-08-06T13:39:08;20.90;1.00
37530;DHT22;23374;52.758;6.872;2023-08-06T13:41:28;20.90;1.00
37530;DHT22;23374;52.758;6.872;2023-08-06T13:43:49;20.90;1.00
37530;DHT22;23374;52.758;6.872;2023-08-06T13:46:11;20.80;1.00
37530;DHT22;23374;52.758;6.872;2023-08-06T13:48:36;20.80;1.00
37530;DHT22;23374;52.758;6.872;2023-08-06T13:50:56;20.90;1.00
37530;DHT22;23374;52.758;6.872;2023-08-06T13:53:17;20.90;1.00
37530;DHT22;23374;52.758;6.872;2023-08-06T13:55:37;20.90;1.00
37530;DHT22;23374;52.758;6.872;2023-08-06T13:57:57;21.00;1.00
37530;DHT22;23374;52.758;6.872;2023-08-06T14:00:18;21.00;1.00
37530;DHT22;23374;52.758;6.872;2023-08-06T14:02:38;20.90;1.00
37530;DHT22;23374;52.758;6.872;2023-08-06T14:04:58;20.90;1.00
37530;DHT22;23374;52.758;6.872;2023-08-06T14:07:19;20.80;1.00
37530;DHT22;23374;52.758;6.872;2023-08-06T14:09:40;20.80;1.00
37530;DHT22;23374;52.758;6.872;2023-08-06T14:12:02;20.70;1.00
37530;DHT22;23374;52.758;6.872;2023-08-06T14:14:23;20.70;1.00
37530;DHT22;23374;52.758;6.872;2023-08-06T14:16:46;20.60;1.00
37530;DHT22;23374;52.758;6.872;2023-08-06T14:19:06;20.60;1.00
37530;DHT22;23374;52.758;6.872;2023-08-06T14:21:27;20.50;1.00
37530;DHT22;23374;52.758;6.872;2023-08-06T14:23:47;20.50;1.00
37530;DHT22;23374;52.758;6.872;2023-08-06T14:26:08;20.50;1.00
37530;DHT22;23374;52.758;6.872;2023-08-06T14:28:30;20.50;1.00
37530;DHT22;23374;52.758;6.872;2023-08-06T14:30:51;20.60;1.00
37530;DHT22;23374;52.758;6.872;2023-08-06T14:33:12;20.60;1.00
37530;DHT22;23374;52.758;6.872;2023-08-06T14:35:32;20.70;1.00
37530;DHT22;23374;52.758;6.872;2023-08-06T14:37:53;20.70;1.00
37530;DHT22;23374;52.758;6.872;2023-08-06T14:40:13;20.70;1.00
37530;DHT22;23374;52.758;6.872;2023-08-06T14:42:33;20.70;1.00
37530;DHT22;23374;52.758;6.872;2023-08-06T14:44:54;20.70;1.00
37530;DHT22;23374;52.758;6.872;2023-08-06T14:47:14;20.70;1.00
37530;DHT22;23374;52.758;6.872;2023-08-06T14:49:35;20.70;1.00
37530;DHT22;23374;52.758;6.872;2023-08-06T14:51:55;20.60;1.00
37530;DHT22;23374;52.758;6.872;2023-08-06T14:54:19;20.60;1.00
37530;DHT22;23374;52.758;6.872;2023-08-06T14:56:39;20.60;1.00
37530;DHT22;23374;52.758;6.872;2023-08-06T14:58:59;20.70;1.00
37530;DHT22;23374;52.758;6.872;2023-08-06T15:01:20;20.70;1.00
37530;DHT22;23374;52.758;6.872;2023-08-06T15:03:41;20.70;1.00